Date,TemperatureHighF,TemperatureAvgF,TemperatureLowF,DewpointHighF,DewpointAvgF,DewpointLowF,HumidityHigh,HumidityAvg,HumidityLow,PressureMaxIn,PressureMinIn,WindSpeedMaxMPH,WindSpeedAvgMPH,GustSpeedMaxMPH,PrecipitationSumIn
2013-2-15,72.7,69.5,67.3,67.5,66.2,63.7,96,89,79,30.02,29.97,10,4,11,7.03
2013-2-16,69.3,66.8,63.9,64.2,63.4,63.0,97,89,83,29.94,29.88,11,4,11,0.00
2013-2-17,54.7,48.8,44.6,38.3,26.6,20.7,65,43,27,30.28,30.12,24,13,24,0.00
2013-2-18,64.0,48.5,46.9,47.5,36.3,34.7,64,62,56,30.31,30.27,10,6,10,0.00
2013-2-19,76.8,72.4,67.5,66.7,65.8,64.4,92,80,68,30.12,30.08,17,6,17,0.00
2013-2-20,80.8,70.5,62.2,68.2,64.6,59.5,98,83,54,30.12,30.01,15,3,15,0.00
2013-2-21,80.8,72.6,64.0,69.8,66.1,62.6,97,81,62,30.09,29.99,14,4,14,0.00
2013-2-22,81.9,75.5,70.5,72.0,69.7,65.8,90,82,71,30.10,30.01,20,7,20,0.00
2013-2-23,82.8,76.2,71.2,72.9,70.4,67.6,95,83,69,30.04,29.91,19,6,19,0.37
2013-2-24,89.1,76.6,70.7,74.1,70.8,66.4,98,84,52,30.00,29.89,17,4,17,0.00
2013-2-25,84.4,75.5,69.1,73.6,70.7,67.5,96,86,66,29.92,29.81,18,4,19,0.03
2013-2-26,81.5,77.0,74.1,73.0,71.5,70.2,93,83,70,29.90,29.80,28,6,28,0.00
2013-2-27,77.2,70.3,63.9,73.6,65.9,61.7,96,87,65,29.97,29.86,16,3,16,0.66
2013-2-28,70.7,64.2,59.5,64.0,55.6,49.6,96,75,50,30.01,29.91,19,4,20,0.00
2013-3-1,65.7,62.0,58.3,58.6,52.7,48.6,85,72,59,29.99,29.90,13,4,13,0.00
2013-3-2,67.1,58.6,51.3,50.7,43.6,36.0,81,59,40,30.04,29.96,29,7,29,0.00
2013-3-3,63.1,55.1,50.2,47.7,43.6,39.9,87,67,47,30.15,29.96,21,6,22,0.00
2013-3-4,70.5,54.6,42.1,47.1,38.1,29.8,88,57,24,30.22,30.12,20,5,20,0.00
2013-3-5,69.6,53.9,49.1,56.8,48.9,46.2,93,84,59,30.19,30.13,8,1,8,0.00
2013-3-7,73.6,65.1,55.9,55.9,50.1,43.0,92,61,35,30.19,30.10,11,3,12,0.00
2013-3-8,78.4,63.2,51.1,55.0,50.9,41.5,93,69,29,30.20,30.10,13,3,13,0.00
2013-3-9,76.3,65.0,53.4,58.5,54.3,50.9,92,70,50,30.19,30.10,21,4,21,0.00
2013-3-10,72.9,67.1,64.9,56.3,54.6,53.1,70,64,55,30.16,30.07,17,4,17,0.00
2013-3-13,69.4,68.1,67.3,58.5,57.5,57.0,70,69,68,30.11,30.10,15,9,15,0.00
2013-3-14,72.3,64.7,55.9,50.5,44.7,37.6,79,51,31,30.20,30.12,21,9,23,0.00
2013-3-15,66.2,56.1,51.6,50.9,47.7,45.3,81,74,55,30.25,30.17,12,6,12,0.00
2013-3-18,80.1,73.8,67.3,70.3,67.5,65.5,96,82,67,30.07,29.96,20,6,21,0.25
2013-3-19,80.8,72.8,68.0,70.0,67.9,64.8,96,85,65,30.01,29.82,24,3,28,0.00
2013-3-20,86.4,73.1,63.7,70.5,64.9,57.4,98,78,48,29.98,29.81,19,3,22,0.00
2013-3-21,70.3,64.5,61.7,62.4,59.3,46.0,94,84,44,29.95,29.83,19,6,19,0.00
2013-3-23,87.3,81.4,75.7,73.9,72.1,67.8,90,74,56,29.95,29.80,18,6,19,0.00
2013-3-24,88.3,79.1,72.1,73.8,71.9,66.9,96,80,55,29.89,29.68,31,9,36,0.00
2013-3-25,80.4,73.5,64.2,73.2,61.0,43.5,95,68,37,29.99,29.74,20,5,20,0.00
2013-3-26,64.2,59.0,55.8,45.0,41.4,35.8,60,52,39,30.12,29.99,27,9,27,0.00
2013-3-28,75.4,67.4,56.8,51.6,44.9,36.1,72,46,27,30.27,30.17,17,5,19,0.00
2013-3-29,75.0,65.0,54.9,54.3,50.6,45.3,81,61,40,30.29,30.20,18,5,19,0.00
2013-3-30,72.0,61.8,56.1,57.9,54.0,51.1,91,77,48,30.27,30.20,15,2,15,0.00
2013-4-2,86.0,78.7,73.6,67.6,66.2,64.0,81,66,49,30.08,30.01,14,5,14,0.00
2013-4-3,82.6,76.8,67.6,70.2,68.3,65.5,94,76,62,30.07,29.99,20,6,21,0.00
2013-4-4,83.7,75.2,69.1,73.6,70.1,66.9,96,85,70,30.05,29.90,31,6,31,0.69
2013-4-5,71.8,69.0,66.4,70.5,66.7,64.6,96,92,86,30.00,29.84,17,6,18,0.21
2013-4-7,79.0,74.5,70.0,64.9,62.9,61.5,77,67,60,30.14,30.08,19,6,19,0.00
2013-4-8,81.0,72.4,61.3,65.1,62.0,56.3,96,72,48,30.14,30.05,16,4,17,0.00
2013-4-9,81.0,75.0,67.8,68.9,66.7,63.3,89,76,59,30.15,30.05,19,6,22,0.00
2013-4-10,80.6,74.4,72.3,72.7,68.2,66.2,84,81,77,30.11,30.04,21,4,21,0.00
2013-4-13,84.7,75.9,72.1,75.6,71.7,67.8,94,87,73,29.97,29.88,14,3,14,0.09
2013-4-14,85.1,78.7,72.0,76.3,73.7,70.0,98,85,68,29.97,29.89,20,6,20,0.00
2013-4-15,83.5,74.1,70.2,75.6,72.0,67.6,97,93,74,30.06,29.93,21,2,21,0.86
2013-4-16,85.8,77.6,71.1,76.5,72.8,70.2,98,86,68,30.12,30.02,20,5,20,0.03
2013-4-17,84.0,77.6,71.8,71.2,69.1,66.4,91,76,60,30.11,30.02,18,5,18,0.00
2013-4-18,85.1,79.3,73.9,74.3,71.1,67.8,86,77,64,30.06,29.98,16,6,18,0.00
2013-4-19,86.4,80.9,77.2,74.3,72.6,69.4,89,76,60,30.05,29.96,24,8,24,0.00
2013-4-20,90.9,79.5,72.3,76.1,72.9,69.6,97,81,53,30.04,29.96,23,4,24,0.02
2013-4-21,84.4,79.7,74.1,74.5,72.4,70.0,88,79,68,30.10,29.98,19,6,19,0.00
2013-4-22,75.9,73.4,72.1,71.8,70.7,68.9,95,91,84,30.04,29.98,14,4,14,0.01
2013-4-24,82.8,78.7,74.3,66.4,64.7,62.4,72,63,53,30.14,30.06,17,6,17,0.00
2013-4-25,83.1,75.9,70.0,65.5,62.9,60.3,78,65,49,30.20,30.08,18,4,18,0.00
2013-4-26,83.5,75.4,66.0,67.6,64.8,61.9,90,71,53,30.22,30.12,21,5,22,0.00
2013-4-27,79.9,74.2,70.0,65.8,63.8,61.9,78,70,59,30.21,30.12,23,5,23,0.00
2013-4-30,83.1,76.4,70.2,72.0,70.2,66.9,95,82,63,29.99,29.94,22,4,22,0.38
2013-5-1,84.2,74.9,70.2,74.1,70.7,68.7,97,88,65,30.00,29.92,17,3,17,0.31
2013-5-2,78.6,71.5,67.6,73.2,69.7,65.8,98,94,82,29.95,29.79,24,5,25,3.69
2013-5-3,89.1,75.1,68.4,71.4,69.6,66.7,98,85,53,29.82,29.71,15,4,15,0.06
2013-6-13,89.1,81.7,75.4,77.7,74.3,72.3,91,79,64,30.06,29.94,18,3,18,0.29
2013-6-14,93.6,81.0,73.8,77.0,73.4,68.9,97,79,48,29.97,29.88,18,3,19,0.05
2013-6-15,93.6,82.8,74.5,77.4,74.5,69.8,97,78,49,30.06,29.93,13,3,13,0.01
2013-6-16,90.3,82.9,75.2,78.3,75.5,72.1,97,80,59,30.10,30.01,16,4,16,0.00
2013-6-17,90.0,83.7,76.8,77.2,75.8,73.6,95,78,62,30.08,30.01,17,4,17,0.00
2013-6-18,90.7,83.8,77.0,77.2,75.6,71.8,95,78,59,30.07,29.98,16,5,17,0.00
2013-6-19,91.0,83.7,77.4,78.4,75.8,73.0,95,78,59,30.05,29.98,19,4,19,0.00
2013-6-20,91.9,81.8,74.8,76.6,73.4,68.2,92,77,55,30.09,30.02,18,4,20,0.00
2013-6-21,90.5,82.9,75.6,76.5,73.6,68.5,94,75,52,30.12,30.03,16,4,16,0.00
2013-6-22,90.3,83.6,76.3,75.4,73.7,71.2,92,73,57,30.10,30.04,17,5,19,0.00
2013-6-23,88.7,82.9,77.5,76.5,74.5,70.3,92,76,60,30.13,30.05,19,6,21,0.06
2013-6-24,86.7,81.6,78.3,75.0,73.6,72.1,85,77,67,30.16,30.09,16,5,16,0.00
2013-6-26,89.1,84.6,81.0,76.5,75.0,72.1,83,73,58,30.08,30.02,19,6,19,0.34
2013-6-27,88.3,81.7,77.4,77.5,75.4,72.1,94,82,68,30.06,29.96,15,2,15,0.00
2013-6-28,89.6,81.1,73.2,77.9,74.8,70.2,97,82,61,30.00,29.86,22,4,22,0.18
2013-6-29,85.5,77.7,75.0,77.2,74.9,73.4,97,92,73,29.94,29.87,10,2,10,0.01
2013-6-30,78.3,76.6,73.9,76.6,74.6,71.4,95,94,91,29.95,29.88,17,2,14,0.93
2013-7-1,88.5,81.2,76.8,78.3,75.7,70.5,95,84,67,30.04,29.92,22,5,24,0.00
2013-7-2,88.9,82.6,77.2,78.6,76.6,72.3,94,83,69,30.12,29.98,19,5,19,0.00
2013-7-3,88.0,81.8,77.2,78.8,75.9,73.0,95,83,69,30.13,30.04,24,7,26,0.19
2013-7-4,88.2,83.0,75.7,77.2,75.4,71.4,95,78,66,30.17,30.07,24,8,25,0.00
2013-7-5,85.5,80.1,73.6,77.7,75.5,71.4,96,86,75,30.14,30.05,24,6,29,1.85
2013-7-6,87.1,82.8,80.1,76.5,75.0,73.9,85,78,67,30.12,30.04,23,8,23,0.00
2013-7-13,76.3,74.3,73.4,74.7,72.8,71.1,97,95,92,30.04,29.97,17,3,19,1.35
2013-7-14,88.3,78.3,72.9,75.6,73.4,71.4,96,86,61,30.09,29.99,19,4,19,0.09
2013-7-15,88.0,80.0,72.9,77.2,73.5,71.2,97,82,61,30.10,30.01,17,4,18,0.18
2013-7-16,83.5,78.1,72.7,75.0,72.2,69.6,95,82,65,30.15,30.04,33,6,36,0.30
2013-7-17,81.5,77.0,73.4,75.0,73.3,71.2,95,88,79,30.15,30.04,15,3,15,0.39
2013-7-18,84.9,77.0,72.7,77.2,73.8,69.6,97,90,75,30.13,30.06,24,4,24,0.62
2013-7-19,87.4,80.7,74.3,78.6,76.1,73.4,98,86,67,30.13,30.05,19,5,19,0.24
2013-7-20,84.6,81.1,79.5,79.0,77.7,76.1,93,90,81,30.12,30.04,15,3,15,0.00
2013-7-22,89.8,85.8,80.4,76.5,75.3,72.1,86,71,59,30.15,30.06,16,6,16,0.00
2013-7-23,96.4,83.8,76.8,77.9,75.1,69.4,95,77,46,30.11,29.97,14,4,15,0.00
2013-7-24,94.1,84.1,77.2,77.0,74.3,69.6,94,74,51,30.03,29.91,17,4,17,0.00
2013-7-25,87.1,78.9,75.7,76.6,74.7,72.5,95,87,68,30.00,29.91,15,2,15,0.00
2013-7-27,79.0,77.5,75.0,76.1,75.3,73.4,96,93,88,30.00,29.92,8,1,8,1.75
2013-7-28,88.2,79.4,72.3,79.2,75.7,70.0,96,89,74,30.08,29.94,12,2,14,1.47
2013-7-29,90.3,82.0,76.3,78.6,76.5,74.5,97,84,65,30.13,30.02,15,3,17,0.00
2013-7-30,90.0,83.6,75.4,79.9,77.0,72.9,95,81,67,30.15,30.06,22,4,22,0.79
2013-7-31,89.4,82.8,78.1,78.3,76.7,73.8,95,83,63,30.11,30.03,18,4,18,0.00
2013-8-1,88.9,84.8,80.2,76.5,74.4,71.6,83,72,62,30.02,29.94,17,7,19,0.00
2013-8-2,90.9,81.9,76.1,77.7,74.4,70.5,94,79,58,30.05,29.91,14,3,14,0.00
2013-8-3,89.2,78.6,72.0,79.0,74.8,69.4,95,88,70,30.16,30.02,21,2,21,0.32
2013-8-4,93.6,81.6,76.1,79.0,75.6,72.7,97,83,58,30.10,29.97,23,2,24,0.00
2013-8-5,91.8,79.8,76.5,80.2,75.8,73.0,96,88,65,30.03,29.93,11,2,14,0.11
2013-8-6,80.1,76.9,76.5,77.9,75.7,74.5,98,96,93,29.98,29.90,6,0,6,0.00
2013-8-7,88.3,85.0,82.8,76.8,75.8,74.3,82,74,65,29.98,29.91,16,6,18,0.00
2013-8-8,90.3,84.9,81.7,78.3,75.9,72.9,85,75,59,30.01,29.92,23,7,23,0.01
2013-8-9,88.9,82.8,78.3,77.5,74.7,70.7,86,77,66,30.06,29.95,23,6,23,0.16
2013-8-10,90.9,84.5,79.3,78.1,76.1,73.4,88,77,59,30.11,30.03,19,6,19,0.00
2013-8-11,90.9,85.2,80.6,78.1,76.5,75.0,85,76,64,30.13,30.06,16,5,16,0.00
2013-8-12,88.2,80.6,77.0,77.7,75.1,73.4,93,84,64,30.11,30.05,13,2,13,0.00
2013-8-14,91.2,86.9,81.7,76.3,74.9,72.5,82,68,57,30.02,29.92,18,6,18,0.00
2013-8-15,87.6,81.6,75.6,78.3,76.0,73.0,94,84,71,30.05,29.95,21,3,21,0.06
2013-8-16,91.8,84.6,78.6,79.9,77.3,74.1,92,80,60,30.04,29.97,15,4,15,0.00
2013-8-17,90.5,85.3,81.5,79.0,77.8,73.6,88,79,65,30.07,29.99,22,5,22,0.00
2013-8-18,90.1,84.9,80.8,79.3,77.1,74.7,87,78,66,30.07,29.99,22,7,23,0.00
2013-8-19,90.9,84.9,81.0,78.3,77.0,75.0,88,78,62,30.07,29.96,20,6,20,0.00
2013-8-20,90.7,84.2,77.9,78.4,76.1,72.3,92,77,59,30.06,29.97,22,5,22,0.00
2013-8-21,88.9,83.4,79.0,79.9,77.6,75.2,94,83,71,30.07,29.99,25,7,25,0.13
2013-8-22,88.0,81.8,76.6,79.0,76.6,73.4,92,85,73,30.06,29.99,17,4,17,0.00
2013-8-24,92.3,85.7,75.7,77.5,75.3,71.4,93,72,58,30.11,30.01,17,6,17,0.15
2013-8-25,87.6,80.9,76.8,76.8,75.2,72.5,95,83,66,30.14,30.02,14,3,14,0.00
2013-8-26,89.1,80.3,71.4,78.6,74.5,68.5,96,83,61,30.11,30.00,22,3,22,0.67
2013-8-27,84.6,75.9,73.8,77.4,74.0,72.5,97,94,77,30.05,29.98,13,2,13,0.01
2013-8-30,91.6,86.7,82.8,76.3,74.3,70.7,79,67,52,30.00,29.89,19,5,20,0.00
2013-8-31,89.8,80.8,74.8,78.6,74.8,71.8,94,83,61,29.97,29.90,15,3,15,0.09
2013-9-1,85.8,76.6,74.7,79.9,74.7,73.2,97,94,75,29.98,29.92,5,0,5,0.00
2013-9-2,78.3,76.9,76.3,74.5,73.7,72.5,91,90,88,30.05,30.01,25,-187,25,0.28
2013-9-7,85.3,76.8,74.7,76.5,73.6,70.2,94,90,69,29.96,29.89,13,2,16,0.15
2013-9-8,88.3,79.4,74.1,79.7,75.1,71.8,96,87,68,29.94,29.85,17,2,17,0.03
2013-9-9,90.0,81.6,74.5,78.8,74.6,71.2,97,81,60,29.99,29.89,18,4,18,0.15
2013-9-10,89.4,82.1,77.2,78.1,75.3,73.0,93,80,66,30.03,29.94,22,5,22,0.00
2013-9-11,83.1,79.4,73.9,78.4,75.2,72.1,96,87,79,30.06,29.96,15,3,24,0.89
2013-9-12,85.5,80.4,76.6,78.1,76.0,73.2,95,87,72,30.01,29.88,9,2,10,0.00
2013-9-13,93.6,82.4,75.0,78.8,75.5,73.0,97,81,54,29.90,29.79,14,2,14,0.19
2013-9-14,92.7,83.4,76.1,78.8,75.2,71.2,96,78,52,29.97,29.81,15,3,15,0.00
2013-9-15,87.4,81.1,77.0,79.3,76.1,71.4,94,85,74,30.04,29.91,23,3,24,0.06
2013-9-16,85.8,80.2,72.9,79.2,76.3,69.6,95,88,73,30.04,29.95,27,4,28,0.71
2013-9-17,81.1,79.2,75.7,76.8,75.4,73.4,95,88,83,30.03,29.91,16,4,16,0.34
2013-9-18,79.7,77.7,75.9,75.6,74.7,73.6,94,91,84,30.00,29.91,11,2,11,0.00
2013-9-20,88.0,83.4,78.3,74.1,71.6,68.2,84,69,54,29.99,29.89,18,6,18,0.00
2013-9-21,87.6,80.5,73.0,75.9,73.1,70.9,95,79,63,29.91,29.77,13,3,13,0.00
2013-9-22,90.9,82.9,76.1,77.5,74.8,71.2,95,78,54,29.86,29.75,15,3,15,0.00
2013-9-23,86.4,80.1,77.5,79.0,77.2,75.9,96,91,77,29.93,29.85,9,1,10,0.00
2013-9-27,86.2,83.4,80.1,76.3,75.8,74.1,88,78,70,29.88,29.87,11,5,11,0.00
2013-9-30,89.4,84.0,80.2,73.8,72.0,69.6,80,68,57,29.99,29.90,16,4,16,0.00
2013-10-1,87.6,82.3,75.7,75.9,73.1,70.9,91,74,61,30.03,29.94,20,5,20,0.00
2013-10-2,88.5,82.5,79.0,75.4,73.4,71.6,83,74,62,30.04,29.96,21,5,22,0.00
2013-10-3,83.7,80.3,79.2,75.6,74.4,73.8,85,82,74,30.04,29.94,14,3,14,0.00
2013-10-5,88.7,84.1,79.2,74.5,72.3,69.6,84,68,56,30.01,29.92,17,5,17,0.00
2013-10-6,89.1,80.8,74.1,77.5,73.4,68.9,96,80,54,29.96,29.86,19,2,19,0.02
2013-10-7,90.5,78.9,73.8,75.9,73.2,69.4,96,84,51,29.89,29.80,34,4,36,0.74
2013-10-8,91.8,81.9,76.3,78.8,74.7,70.9,98,80,59,29.92,29.84,14,4,16,0.00
2013-10-9,86.7,78.4,73.0,77.2,73.6,70.9,95,86,71,29.98,29.89,16,5,18,0.00
2013-10-10,88.0,79.5,71.4,75.4,71.9,69.3,96,79,60,30.00,29.93,18,5,18,0.00
2013-10-11,88.0,78.5,70.2,72.7,69.2,66.7,96,75,54,30.00,29.93,16,3,16,0.00
2013-10-12,87.1,73.6,68.7,72.1,68.7,66.7,96,86,55,30.02,29.94,7,1,7,0.00
2013-10-14,88.0,81.6,73.2,71.1,69.6,67.8,91,68,55,29.99,29.90,14,3,14,0.00
2013-10-15,87.1,77.9,71.2,73.4,71.0,68.5,95,80,59,29.95,29.86,14,3,14,0.00
2013-10-16,88.3,78.4,71.8,73.6,70.7,68.9,95,79,55,29.94,29.88,13,2,13,0.00
2013-10-17,89.2,79.2,70.9,75.0,71.4,69.1,96,78,58,29.96,29.88,14,2,14,0.00
2013-10-18,87.3,79.1,72.3,75.0,72.1,70.2,95,80,64,29.96,29.89,16,3,16,0.00
2013-10-19,89.6,81.4,73.6,76.3,73.1,70.7,95,77,59,29.96,29.87,15,4,15,0.00
2013-10-20,91.2,82.0,76.5,79.3,75.6,73.0,95,82,57,29.95,29.86,15,2,15,0.00
2013-10-21,86.7,78.9,75.9,77.5,74.9,73.8,95,88,72,29.99,29.92,10,1,10,0.00
2013-10-23,89.6,82.4,77.5,75.7,72.1,69.4,77,71,61,29.95,29.81,13,6,18,0.00
2013-10-24,81.0,76.5,72.0,70.0,65.8,62.8,82,70,62,30.09,29.92,16,6,16,0.00
2013-10-25,82.8,75.6,68.2,66.7,64.7,62.8,86,70,53,30.14,30.06,22,6,22,0.00
2013-10-26,76.5,69.4,66.9,66.7,64.6,63.0,88,85,72,30.14,30.06,7,2,7,0.00
2013-10-29,85.5,81.2,77.9,71.1,68.3,64.9,71,65,59,30.17,30.09,21,8,21,0.00
2013-10-30,85.5,79.1,74.1,70.3,67.7,65.7,78,68,57,30.18,30.07,22,6,22,0.00
2013-10-31,84.6,79.8,76.5,73.2,70.8,66.0,84,74,64,30.11,29.99,19,6,21,0.00
2013-11-1,86.7,80.5,74.5,74.8,73.0,71.1,90,79,64,30.00,29.87,17,4,17,0.00
2013-11-2,89.6,78.8,71.8,74.5,70.7,63.0,96,78,47,29.93,29.79,17,4,17,0.00
2013-11-3,81.5,74.5,68.4,66.4,63.4,61.0,85,69,56,30.02,29.88,25,9,25,0.00
2013-11-4,80.8,76.5,73.2,69.6,64.4,59.2,81,67,52,30.07,30.00,29,9,29,0.03
2013-11-5,82.0,79.1,76.6,71.8,69.1,65.5,78,72,64,30.09,30.01,31,11,31,0.00
2013-11-6,82.0,78.1,77.2,70.5,69.5,68.9,77,75,67,30.06,29.99,23,9,24,0.00
2013-11-8,84.4,78.8,73.9,73.4,71.7,68.7,95,80,63,30.03,29.96,24,9,24,0.35
2013-11-9,78.4,76.2,73.0,73.2,71.6,70.3,95,86,80,30.10,30.00,25,9,26,0.41
2013-11-10,83.5,78.5,75.7,73.0,71.1,68.9,85,78,69,30.11,30.04,18,5,18,0.00
2013-11-11,83.7,76.9,70.3,72.7,69.1,66.9,93,77,67,30.11,30.04,20,4,20,0.00
2013-11-12,84.4,76.9,70.0,72.3,68.5,66.2,94,76,58,30.07,29.96,14,4,14,0.00
2013-11-13,75.6,72.2,69.1,68.0,63.7,55.9,86,75,62,30.20,29.98,29,11,29,0.00
2013-11-14,77.9,72.8,69.1,62.4,58.9,55.0,69,62,54,30.23,30.13,25,9,25,0.00
2013-11-15,80.6,76.7,73.2,69.8,67.1,62.4,75,72,65,30.14,30.02,22,8,22,0.00
2013-11-16,80.1,77.2,72.3,72.7,70.5,63.9,92,80,70,30.09,30.01,16,5,17,0.23
2013-11-17,83.8,78.5,72.9,74.1,71.4,69.1,92,79,68,30.07,29.99,18,5,19,0.00
2013-11-18,80.8,73.8,72.0,76.6,71.9,69.8,97,94,83,30.02,29.97,9,0,9,0.01
2013-11-19,80.1,74.3,72.9,74.5,72.3,71.4,96,93,79,29.93,29.84,16,3,16,0.05
2013-11-20,86.7,76.8,70.0,75.0,72.2,68.9,97,86,63,30.05,29.91,13,2,13,0.01
2013-11-21,81.0,76.0,71.8,74.7,72.5,70.2,97,89,78,30.13,30.03,21,4,21,1.09
2013-11-22,81.9,77.6,74.8,72.7,70.6,68.5,85,79,69,30.15,30.06,24,7,24,0.00
2013-11-23,82.4,77.0,72.1,72.3,70.5,68.5,89,81,70,30.07,29.96,17,4,17,0.00
2013-11-24,82.0,73.7,68.4,70.9,67.9,64.2,96,83,63,30.14,29.98,26,6,26,0.03
2013-11-25,75.0,73.1,70.3,69.1,65.0,60.4,86,76,67,30.19,30.05,27,11,27,0.01
2013-11-26,83.1,77.6,72.1,75.0,73.0,68.7,94,86,74,30.04,29.81,25,9,26,0.16
2013-11-27,79.2,71.7,57.7,75.4,65.6,51.6,97,82,56,30.11,29.77,28,8,28,0.56
2013-11-28,74.5,62.7,47.8,60.3,53.6,45.0,90,73,53,30.24,30.11,22,7,22,0.00
2013-11-29,78.1,69.3,59.2,63.5,60.1,56.5,92,74,53,30.26,30.18,24,6,24,0.00
2013-11-30,77.4,69.6,61.5,69.8,63.4,59.5,95,81,65,30.20,30.09,27,6,27,0.14
2013-12-1,70.5,64.4,62.1,69.1,62.5,59.9,96,94,86,30.10,30.03,6,1,6,0.00
2013-12-3,79.3,74.2,70.2,66.7,64.4,59.4,88,72,58,29.99,29.91,10,2,10,0.00
2013-12-4,81.3,73.5,65.8,69.6,66.4,63.9,94,80,60,30.09,29.98,13,2,13,0.00
2013-12-5,82.4,74.3,65.5,72.1,68.8,64.2,97,84,68,30.16,30.07,14,4,16,0.00
2013-12-6,80.1,76.3,75.0,71.2,70.3,69.1,85,82,73,30.18,30.08,18,5,18,0.00
2013-12-9,83.5,77.7,70.5,70.5,67.7,63.7,92,72,53,30.19,30.10,20,5,20,0.00
2013-12-10,84.0,77.0,70.9,73.4,71.3,68.0,94,83,67,30.16,30.07,13,2,13,0.00
2013-12-11,79.2,71.4,69.8,75.2,70.1,68.5,98,96,88,30.19,30.11,10,2,10,0.00
2013-12-14,81.7,78.0,73.0,73.2,71.4,70.2,92,81,70,30.10,29.98,20,6,21,0.01
2013-12-15,83.3,76.0,70.5,75.7,72.0,66.9,96,88,75,30.05,29.92,19,4,19,0.00
2013-12-16,75.6,68.0,61.3,66.9,61.6,58.6,91,81,66,30.15,30.03,15,6,15,0.00
2013-12-17,70.2,60.4,58.6,64.2,58.3,56.8,95,93,82,30.17,30.10,10,5,11,0.00
2013-12-19,77.7,74.5,71.4,64.2,61.6,59.5,71,64,56,30.23,30.14,19,6,19,0.00
2013-12-20,80.2,75.8,70.5,70.5,67.4,62.2,80,75,68,30.18,30.10,18,6,19,0.00
2013-12-21,83.3,78.2,75.6,73.4,71.5,69.1,85,80,69,30.14,30.05,22,8,22,0.00
2013-12-22,80.8,77.5,76.6,72.5,71.9,71.2,85,83,77,30.15,30.06,21,9,21,0.00
2013-12-25,76.8,74.1,72.0,67.6,66.4,64.9,86,77,69,30.17,30.09,22,8,22,0.00
2013-12-26,78.1,75.0,73.0,70.7,69.0,66.7,86,82,76,30.16,30.06,15,5,16,0.00
2013-12-27,79.0,73.0,71.1,71.6,69.7,68.5,94,90,76,30.17,30.08,19,2,19,0.02
2013-12-30,80.1,73.2,68.4,71.2,68.6,64.6,98,86,73,30.14,30.04,12,4,12,0.01
2013-12-31,79.3,72.5,67.5,67.6,64.7,62.8,89,77,63,30.22,30.10,22,8,22,0.00
2014-1-1,80.8,75.9,72.7,73.4,70.2,64.4,93,83,72,30.18,30.03,18,6,18,0.00
2014-1-2,79.7,71.9,68.7,72.0,69.7,67.5,97,93,75,30.03,29.98,14,1,14,0.00